Time;durP1;ratioP1;P1;durP2;ratioP2;P2;SDS_P1;SDS_P2;PMS_P1;PMS_P2;Temp;Humidity;BMP_temperature;BMP_pressure;BME280_temperature;BME280_humidity;BME280_pressure;Samples;Min_cycle;Max_cycle;Signal;HPM_P1;HPM_P2
2021/07/22 00:00:08;;;;;;;46.38;20.33;;;;;;;;;;5094059;28;20106;-81
2021/07/22 00:02:33;;;;;;;46.08;17.73;;;;;;;;;;5093973;28;20103;-81
2021/07/22 00:04:58;;;;;;;39.03;16.33;;;;;;;;;;5094024;28;20108;-81
2021/07/22 00:07:23;;;;;;;34.85;16.63;;;;;;;;;;5093859;28;20350;-81
2021/07/22 00:09:49;;;;;;;43.42;18.08;;;;;;;;;;5094152;28;20082;-81
2021/07/22 00:12:14;;;;;;;42.85;17.90;;;;;;;;;;5093693;28;20501;-80
2021/07/22 00:14:40;;;;;;;43.85;18.70;;;;;;;;;;5093803;28;20525;-81
2021/07/22 00:17:06;;;;;;;50.17;19.65;;;;;;;;;;5093856;28;20123;-80
2021/07/22 00:19:31;;;;;;;39.17;17.75;;;;;;;;;;5093716;28;20467;-81
2021/07/22 00:21:57;;;;;;;45.85;19.45;;;;;;;;;;5093663;28;20380;-80
2021/07/22 00:24:22;;;;;;;58.53;20.90;;;;;;;;;;5093553;28;20032;-81
2021/07/22 00:26:48;;;;;;;41.00;18.13;;;;;;;;;;5093570;28;20107;-80
2021/07/22 00:29:13;;;;;;;43.38;17.63;;;;;;;;;;5093413;28;20036;-80
2021/07/22 00:31:38;;;;;;;32.45;15.82;;;;;;;;;;5093581;28;20128;-81
2021/07/22 00:34:03;;;;;;;55.13;20.15;;;;;;;;;;5092349;28;20020;-80
2021/07/22 00:36:29;;;;;;;38.72;17.83;;;;;;;;;;5093454;28;20035;-81
2021/07/22 00:38:54;;;;;;;54.00;19.52;;;;;;;;;;5093602;28;20460;-80
2021/07/22 00:41:19;;;;;;;49.83;18.60;;;;;;;;;;5093224;28;20104;-80
2021/07/22 00:43:44;;;;;;;43.38;18.52;;;;;;;;;;5093509;28;20219;-81
2021/07/22 00:46:10;;;;;;;54.80;21.30;;;;;;;;;;5093465;28;20028;-81
2021/07/22 00:48:35;;;;;;;47.42;20.27;;;;;;;;;;5093487;28;20024;-80
2021/07/22 00:51:01;;;;;;;39.30;18.88;;;;;;;;;;5093487;28;20036;-80
2021/07/22 00:53:26;;;;;;;44.58;19.50;;;;;;;;;;5093779;28;20487;-80
2021/07/22 00:55:51;;;;;;;40.90;18.83;;;;;;;;;;5097587;28;20027;-80
2021/07/22 00:58:17;;;;;;;52.13;20.15;;;;;;;;;;5097470;28;20456;-81
2021/07/22 01:00:42;;;;;;;46.70;19.65;;;;;;;;;;5097410;28;20032;-81
2021/07/22 01:03:07;;;;;;;52.05;20.48;;;;;;;;;;5097464;28;20099;-80
2021/07/22 01:05:33;;;;;;;44.75;19.75;;;;;;;;;;5097408;28;20081;-80
2021/07/22 01:07:58;;;;;;;48.17;21.85;;;;;;;;;;5097420;28;20032;-80
2021/07/22 01:10:23;;;;;;;47.00;19.60;;;;;;;;;;5097242;28;20020;-80
2021/07/22 01:12:49;;;;;;;48.38;20.38;;;;;;;;;;5095870;28;20126;-80
2021/07/22 01:15:14;;;;;;;58.35;22.00;;;;;;;;;;5097092;28;20058;-80
2021/07/22 01:17:42;;;;;;;47.17;21.15;;;;;;;;;;5097238;28;20024;-80
2021/07/22 01:20:28;;;;;;;49.85;19.73;;;;;;;;;;5088764;28;20080;-81
2021/07/22 01:22:54;;;;;;;42.03;18.48;;;;;;;;;;5096177;28;20036;-80
2021/07/22 01:25:20;;;;;;;38.33;19.15;;;;;;;;;;5096568;28;20035;-80
2021/07/22 01:27:45;;;;;;;66.43;22.92;;;;;;;;;;5096583;28;20380;-80
2021/07/22 01:30:11;;;;;;;51.03;17.17;;;;;;;;;;5096477;28;20380;-81
2021/07/22 01:32:36;;;;;;;44.33;17.05;;;;;;;;;;5096772;28;20039;-81
2021/07/22 01:35:02;;;;;;;50.22;17.80;;;;;;;;;;5096764;28;20452;-80
2021/07/22 01:37:27;;;;;;;43.97;17.95;;;;;;;;;;5096779;28;20043;-80
2021/07/22 01:39:53;;;;;;;41.75;17.08;;;;;;;;;;5096725;28;20077;-80
2021/07/22 01:42:18;;;;;;;50.40;19.05;;;;;;;;;;5096652;28;20372;-80
2021/07/22 01:44:43;;;;;;;51.72;21.45;;;;;;;;;;5096646;28;20444;-80
2021/07/22 01:47:09;;;;;;;63.90;24.98;;;;;;;;;;5096536;28;20108;-81
2021/07/22 01:49:34;;;;;;;51.78;20.88;;;;;;;;;;5095700;28;20396;-81
2021/07/22 01:52:00;;;;;;;50.72;22.08;;;;;;;;;;5096158;28;20054;-81
2021/07/22 01:54:26;;;;;;;57.70;22.65;;;;;;;;;;5096681;28;20198;-81
2021/07/22 01:56:51;;;;;;;63.88;23.67;;;;;;;;;;5096463;28;20028;-80
2021/07/22 01:59:16;;;;;;;64.05;23.30;;;;;;;;;;5096037;28;20059;-80
2021/07/22 02:01:41;;;;;;;54.90;21.08;;;;;;;;;;5095943;28;20365;-80
2021/07/22 02:04:07;;;;;;;56.22;23.50;;;;;;;;;;5096258;28;20122;-80
2021/07/22 02:06:32;;;;;;;54.97;22.63;;;;;;;;;;5094963;28;20434;-81
2021/07/22 02:08:57;;;;;;;66.50;24.63;;;;;;;;;;5096283;28;20024;-80
2021/07/22 02:11:23;;;;;;;58.53;21.88;;;;;;;;;;5096295;28;20383;-80
2021/07/22 02:13:49;;;;;;;62.78;24.17;;;;;;;;;;5096072;28;20016;-80
2021/07/22 02:16:14;;;;;;;65.95;24.05;;;;;;;;;;5095655;28;20080;-80
2021/07/22 02:18:39;;;;;;;60.30;22.05;;;;;;;;;;5095957;28;20024;-80
2021/07/22 02:21:05;;;;;;;55.50;22.90;;;;;;;;;;5095686;28;20063;-80
2021/07/22 02:23:31;;;;;;;60.60;23.67;;;;;;;;;;5095847;28;20411;-81
2021/07/22 02:25:56;;;;;;;57.33;22.40;;;;;;;;;;5094571;28;20036;-80
2021/07/22 02:28:21;;;;;;;45.90;20.23;;;;;;;;;;5095794;28;20103;-80
2021/07/22 02:30:46;;;;;;;53.65;23.45;;;;;;;;;;5095862;28;20039;-80
2021/07/22 02:33:12;;;;;;;53.45;22.25;;;;;;;;;;5095566;28;20122;-80
2021/07/22 02:35:37;;;;;;;59.70;24.25;;;;;;;;;;5095397;28;20020;-80
2021/07/22 02:38:02;;;;;;;51.90;22.52;;;;;;;;;;5095684;28;20024;-80
2021/07/22 02:40:27;;;;;;;81.93;26.70;;;;;;;;;;5094380;28;20032;-80
2021/07/22 02:42:53;;;;;;;62.88;25.55;;;;;;;;;;5095593;28;20371;-80
2021/07/22 02:45:18;;;;;;;65.45;24.02;;;;;;;;;;5094370;28;20028;-80
2021/07/22 02:47:43;;;;;;;75.35;25.75;;;;;;;;;;5095466;28;20531;-80
2021/07/22 02:50:09;;;;;;;50.90;21.33;;;;;;;;;;5095302;28;20039;-80
2021/07/22 02:52:34;;;;;;;57.28;23.10;;;;;;;;;;5095279;28;20240;-80
2021/07/22 02:54:59;;;;;;;58.63;24.45;;;;;;;;;;5095397;28;20475;-80
2021/07/22 02:57:25;;;;;;;65.75;25.35;;;;;;;;;;5094860;28;20208;-80
2021/07/22 02:59:51;;;;;;;57.20;22.83;;;;;;;;;;5094859;28;20521;-80
2021/07/22 03:02:16;;;;;;;79.57;27.08;;;;;;;;;;5095046;28;20039;-80
2021/07/22 03:04:41;;;;;;;74.60;26.90;;;;;;;;;;5095050;28;20023;-80
2021/07/22 03:07:06;;;;;;;72.22;25.92;;;;;;;;;;5095088;28;20032;-80
2021/07/22 03:09:32;;;;;;;46.65;20.77;;;;;;;;;;5094968;28;20360;-80
2021/07/22 03:11:58;;;;;;;51.97;23.10;;;;;;;;;;5094943;28;20032;-80
2021/07/22 03:14:23;;;;;;;75.10;26.33;;;;;;;;;;5094828;28;20071;-80
2021/07/22 03:16:48;;;;;;;71.32;25.83;;;;;;;;;;5094007;28;20371;-80
2021/07/22 03:19:14;;;;;;;54.17;22.77;;;;;;;;;;5094783;28;20019;-80
2021/07/22 03:21:39;;;;;;;68.43;26.42;;;;;;;;;;5094509;28;20048;-80
2021/07/22 03:24:04;;;;;;;54.63;23.90;;;;;;;;;;5094764;28;20092;-80
2021/07/22 03:26:30;;;;;;;58.40;23.20;;;;;;;;;;5094639;28;20444;-80
2021/07/22 03:28:55;;;;;;;57.08;24.58;;;;;;;;;;5094170;28;20032;-80
2021/07/22 03:31:20;;;;;;;71.20;26.02;;;;;;;;;;5094175;28;20071;-80
2021/07/22 03:33:45;;;;;;;56.45;24.45;;;;;;;;;;5094481;28;20055;-80
2021/07/22 03:36:11;;;;;;;66.15;25.33;;;;;;;;;;5094572;28;20032;-80
2021/07/22 03:38:36;;;;;;;61.08;25.13;;;;;;;;;;5094495;28;20132;-80
2021/07/22 03:41:01;;;;;;;59.85;23.95;;;;;;;;;;5094392;28;20380;-80
2021/07/22 03:43:27;;;;;;;55.58;24.40;;;;;;;;;;5094458;28;20058;-80
2021/07/22 03:45:58;;;;;;;57.00;24.15;;;;;;;;;;5094345;28;20410;-80
2021/07/22 03:48:24;;;;;;;67.80;25.42;;;;;;;;;;5094276;28;20026;-80
2021/07/22 03:50:49;;;;;;;69.63;25.15;;;;;;;;;;5094180;28;20107;-80
2021/07/22 03:53:15;;;;;;;64.53;25.17;;;;;;;;;;5094073;28;20081;-80
2021/07/22 03:55:40;;;;;;;67.75;23.67;;;;;;;;;;5094065;28;20073;-80
2021/07/22 03:58:05;;;;;;;70.43;26.52;;;;;;;;;;5094100;28;20038;-79
2021/07/22 04:00:31;;;;;;;54.97;23.15;;;;;;;;;;5094036;28;20036;-79
2021/07/22 04:03:04;;;;;;;65.60;25.83;;;;;;;;;;5093995;28;20107;-79
2021/07/22 04:05:29;;;;;;;52.97;23.02;;;;;;;;;;5093916;28;20030;-79
2021/07/22 04:07:58;;;;;;;64.53;26.92;;;;;;;;;;5094015;28;20248;-79
2021/07/22 04:10:24;;;;;;;45.45;20.52;;;;;;;;;;5093850;28;20508;-80
2021/07/22 04:12:57;;;;;;;54.17;23.05;;;;;;;;;;5093421;28;20479;-79
2021/07/22 04:15:25;;;;;;;64.13;24.42;;;;;;;;;;5093812;28;20036;-80
2021/07/22 04:17:51;;;;;;;75.55;28.55;;;;;;;;;;5093855;28;20012;-80
2021/07/22 04:20:16;;;;;;;54.75;23.77;;;;;;;;;;5093360;28;20060;-80
2021/07/22 04:22:42;;;;;;;47.33;20.80;;;;;;;;;;5093420;28;20031;-79
2021/07/22 04:25:07;;;;;;;76.88;27.10;;;;;;;;;;5093700;28;20020;-80
2021/07/22 04:27:33;;;;;;;61.15;22.88;;;;;;;;;;5093610;28;20067;-79
2021/07/22 04:30:00;;;;;;;56.33;22.10;;;;;;;;;;5093524;28;20121;-79
2021/07/22 04:32:26;;;;;;;58.47;23.05;;;;;;;;;;5093618;28;20059;-79
2021/07/22 04:34:51;;;;;;;46.85;20.90;;;;;;;;;;5093586;28;20106;-80
2021/07/22 04:37:17;;;;;;;59.38;23.10;;;;;;;;;;5093203;28;20016;-79
2021/07/22 04:39:42;;;;;;;64.60;24.23;;;;;;;;;;5093615;28;20016;-80
2021/07/22 04:42:07;;;;;;;60.80;22.20;;;;;;;;;;5093608;28;20028;-79
2021/07/22 04:44:33;;;;;;;44.00;19.45;;;;;;;;;;5093502;28;20020;-79
2021/07/22 04:46:58;;;;;;;48.95;21.33;;;;;;;;;;5093494;28;20448;-79
2021/07/22 04:49:23;;;;;;;59.60;25.08;;;;;;;;;;5093407;28;20036;-79
2021/07/22 04:51:49;;;;;;;55.25;22.88;;;;;;;;;;5093339;28;20040;-79
2021/07/22 04:54:15;;;;;;;57.20;23.40;;;;;;;;;;5093493;28;20024;-80
2021/07/22 04:56:40;;;;;;;52.53;22.00;;;;;;;;;;5093413;28;20460;-79
2021/07/22 04:59:05;;;;;;;50.47;21.55;;;;;;;;;;5093212;28;20099;-79
2021/07/22 05:01:30;;;;;;;52.10;21.40;;;;;;;;;;5093354;28;20065;-79
2021/07/22 05:03:56;;;;;;;53.42;20.55;;;;;;;;;;5093316;28;20369;-80
2021/07/22 05:06:21;;;;;;;52.08;20.85;;;;;;;;;;5093281;28;20040;-79
2021/07/22 05:08:46;;;;;;;69.20;24.02;;;;;;;;;;5093373;28;20051;-79
2021/07/22 05:11:12;;;;;;;44.45;18.98;;;;;;;;;;5092832;28;20040;-80
2021/07/22 05:13:39;;;;;;;49.13;20.08;;;;;;;;;;5093215;28;20016;-80
2021/07/22 05:16:07;;;;;;;50.15;20.08;;;;;;;;;;5093313;28;20023;-80
2021/07/22 05:18:33;;;;;;;50.30;19.38;;;;;;;;;;5092975;28;20538;-80
2021/07/22 05:21:02;;;;;;;80.35;21.88;;;;;;;;;;5093262;28;20040;-80
2021/07/22 05:23:27;;;;;;;84.53;24.02;;;;;;;;;;5091978;28;20376;-80
2021/07/22 05:25:52;;;;;;;39.03;16.33;;;;;;;;;;5093127;28;20032;-80
2021/07/22 05:28:17;;;;;;;38.25;14.98;;;;;;;;;;5093030;28;20048;-80
2021/07/22 05:30:43;;;;;;;53.15;19.30;;;;;;;;;;5092886;28;20022;-80
2021/07/22 05:33:08;;;;;;;44.10;16.60;;;;;;;;;;5092886;28;20090;-80
2021/07/22 05:35:33;;;;;;;47.40;17.63;;;;;;;;;;5093015;28;20012;-80
2021/07/22 05:37:59;;;;;;;34.70;15.85;;;;;;;;;;5092975;28;20448;-80
2021/07/22 05:40:24;;;;;;;29.20;14.40;;;;;;;;;;5093446;28;20032;-80
2021/07/22 05:42:49;;;;;;;34.45;14.73;;;;;;;;;;5096703;28;20016;-81
2021/07/22 05:45:15;;;;;;;129.85;28.30;;;;;;;;;;5096715;28;20028;-80
2021/07/22 05:47:41;;;;;;;16.40;10.23;;;;;;;;;;5096610;28;20032;-81
2021/07/22 05:50:06;;;;;;;18.08;9.18;;;;;;;;;;5096586;28;20020;-81
2021/07/22 05:52:32;;;;;;;14.95;8.98;;;;;;;;;;5096754;28;20031;-81
2021/07/22 05:54:57;;;;;;;15.02;8.00;;;;;;;;;;5096485;28;20475;-81
2021/07/22 05:57:22;;;;;;;11.55;8.05;;;;;;;;;;5095229;28;20016;-81
2021/07/22 05:59:47;;;;;;;11.32;7.22;;;;;;;;;;5096440;28;20441;-81
2021/07/22 06:02:14;;;;;;;13.93;7.28;;;;;;;;;;5096183;28;20452;-81
2021/07/22 06:04:39;;;;;;;10.82;6.53;;;;;;;;;;5096369;28;20371;-82
2021/07/22 06:07:05;;;;;;;12.82;6.38;;;;;;;;;;5096489;28;20254;-81
2021/07/22 06:09:30;;;;;;;9.73;6.30;;;;;;;;;;5095837;28;20044;-82
2021/07/22 06:11:56;;;;;;;9.82;6.20;;;;;;;;;;5094844;28;20060;-82
2021/07/22 06:14:21;;;;;;;10.45;5.68;;;;;;;;;;5096097;28;20020;-81
2021/07/22 06:16:46;;;;;;;10.38;5.95;;;;;;;;;;5096105;28;20067;-81
2021/07/22 06:19:12;;;;;;;9.32;5.47;;;;;;;;;;5095787;28;20020;-82
2021/07/22 06:21:37;;;;;;;7.93;5.47;;;;;;;;;;5096306;28;20463;-82
2021/07/22 06:24:03;;;;;;;7.65;5.07;;;;;;;;;;5096330;28;20474;-80
2021/07/22 06:26:31;;;;;;;11.02;5.95;;;;;;;;;;5094293;28;20019;-80
2021/07/22 06:28:57;;;;;;;7.55;5.70;;;;;;;;;;5095846;28;20031;-81
2021/07/22 06:31:22;;;;;;;8.48;5.10;;;;;;;;;;5095804;28;20032;-81
2021/07/22 06:33:47;;;;;;;8.52;6.05;;;;;;;;;;5095458;28;20016;-81
2021/07/22 06:36:13;;;;;;;8.95;5.78;;;;;;;;;;5095421;28;20091;-81
2021/07/22 06:38:38;;;;;;;7.63;5.38;;;;;;;;;;5093995;28;20024;-81
2021/07/22 06:41:03;;;;;;;8.80;5.30;;;;;;;;;;5095640;28;20047;-81
2021/07/22 06:43:31;;;;;;;9.10;5.78;;;;;;;;;;5094106;28;20043;-81
2021/07/22 06:45:56;;;;;;;9.45;5.90;;;;;;;;;;5095334;28;20074;-80
2021/07/22 06:48:22;;;;;;;9.45;6.15;;;;;;;;;;5095260;28;20021;-80
2021/07/22 06:50:47;;;;;;;8.63;5.90;;;;;;;;;;5095212;28;20020;-82
2021/07/22 06:53:12;;;;;;;7.78;6.30;;;;;;;;;;5094935;28;20071;-81
2021/07/22 06:55:38;;;;;;;8.32;6.00;;;;;;;;;;5095275;28;20024;-82
2021/07/22 06:58:06;;;;;;;10.40;6.77;;;;;;;;;;5095162;28;20020;-81
2021/07/22 07:00:32;;;;;;;11.60;7.13;;;;;;;;;;5095145;28;20276;-82
2021/07/22 07:03:00;;;;;;;7.97;6.60;;;;;;;;;;5091178;28;20024;-81
2021/07/22 07:05:25;;;;;;;11.68;7.00;;;;;;;;;;5095136;28;20061;-81
2021/07/22 07:07:50;;;;;;;11.60;7.30;;;;;;;;;;5095027;28;20103;-82
2021/07/22 07:10:16;;;;;;;9.87;6.67;;;;;;;;;;5094982;28;20020;-82
2021/07/22 07:12:41;;;;;;;10.55;6.90;;;;;;;;;;5094970;28;20317;-82
2021/07/22 07:15:07;;;;;;;11.47;7.33;;;;;;;;;;5094844;28;20032;-82
2021/07/22 07:17:33;;;;;;;12.90;6.95;;;;;;;;;;5095087;28;20246;-81
2021/07/22 07:19:58;;;;;;;8.13;6.97;;;;;;;;;;5094604;28;20438;-82
2021/07/22 07:22:23;;;;;;;8.32;6.25;;;;;;;;;;5094499;28;20303;-82
2021/07/22 07:24:48;;;;;;;10.47;7.07;;;;;;;;;;5094686;28;20103;-83
2021/07/22 07:27:14;;;;;;;11.57;6.53;;;;;;;;;;5094490;28;20237;-82
2021/07/22 07:29:39;;;;;;;11.57;7.15;;;;;;;;;;5094694;28;20479;-83
2021/07/22 07:32:04;;;;;;;9.77;5.43;;;;;;;;;;5094694;28;20051;-82
2021/07/22 07:34:30;;;;;;;10.98;7.20;;;;;;;;;;5094572;28;20240;-82
2021/07/22 07:36:56;;;;;;;14.30;7.20;;;;;;;;;;5094303;28;20039;-83
2021/07/22 07:39:21;;;;;;;11.63;7.25;;;;;;;;;;5094305;28;20319;-82
2021/07/22 07:41:47;;;;;;;13.07;8.05;;;;;;;;;;5094097;28;20109;-83
2021/07/22 07:44:12;;;;;;;13.98;8.32;;;;;;;;;;5093534;28;20032;-83
2021/07/22 07:46:37;;;;;;;11.07;7.97;;;;;;;;;;5094361;28;20013;-83
2021/07/22 07:49:03;;;;;;;10.97;7.37;;;;;;;;;;5094312;28;20283;-83
2021/07/22 07:51:29;;;;;;;11.63;7.60;;;;;;;;;;5094164;28;20272;-83
2021/07/22 07:53:54;;;;;;;12.18;8.35;;;;;;;;;;5094285;28;20043;-82
2021/07/22 07:56:19;;;;;;;11.13;7.72;;;;;;;;;;5094455;28;20368;-83
2021/07/22 07:58:45;;;;;;;11.93;8.13;;;;;;;;;;5094063;28;20032;-84
2021/07/22 08:01:10;;;;;;;14.40;8.07;;;;;;;;;;5094111;28;20020;-83
2021/07/22 08:03:35;;;;;;;11.30;7.73;;;;;;;;;;5093383;28;20028;-83
2021/07/22 08:06:00;;;;;;;11.67;7.80;;;;;;;;;;5094033;28;20375;-84
2021/07/22 08:08:26;;;;;;;11.77;7.60;;;;;;;;;;5093618;28;20245;-83
2021/07/22 08:10:57;;;;;;;15.57;8.15;;;;;;;;;;5093824;28;20008;-83
2021/07/22 08:13:22;;;;;;;13.32;8.02;;;;;;;;;;5093926;28;20036;-83
2021/07/22 08:15:47;;;;;;;13.23;8.80;;;;;;;;;;5093951;28;20020;-83
2021/07/22 08:18:15;;;;;;;12.87;8.60;;;;;;;;;;5093841;28;20103;-84
2021/07/22 08:20:40;;;;;;;10.52;7.53;;;;;;;;;;5093527;28;20059;-83
2021/07/22 08:23:06;;;;;;;10.60;7.50;;;;;;;;;;5093285;28;20055;-83
2021/07/22 08:25:32;;;;;;;11.85;7.38;;;;;;;;;;5093703;28;20024;-83
2021/07/22 08:27:57;;;;;;;13.50;7.85;;;;;;;;;;5093622;28;20549;-83
2021/07/22 08:30:22;;;;;;;9.53;7.60;;;;;;;;;;5093347;28;20098;-83
2021/07/22 08:32:48;;;;;;;8.60;7.10;;;;;;;;;;5093479;28;20032;-83
2021/07/22 08:35:13;;;;;;;12.45;8.40;;;;;;;;;;5093530;28;20066;-82
2021/07/22 08:37:39;;;;;;;10.98;7.00;;;;;;;;;;5093471;28;20023;-84
2021/07/22 08:40:05;;;;;;;8.90;6.28;;;;;;;;;;5093612;28;20051;-83
2021/07/22 08:42:35;;;;;;;12.43;7.18;;;;;;;;;;5093399;28;20036;-83
2021/07/22 08:45:01;;;;;;;8.70;5.50;;;;;;;;;;5083693;28;20023;-83
2021/07/22 08:47:26;;;;;;;14.60;8.10;;;;;;;;;;5086928;28;20036;-84
2021/07/22 08:49:51;;;;;;;12.85;7.15;;;;;;;;;;5090737;28;20081;-85
2021/07/22 08:52:17;;;;;;;10.68;6.85;;;;;;;;;;5090026;28;21004;-83
2021/07/22 08:54:42;;;;;;;9.75;7.10;;;;;;;;;;5090327;28;20166;-82
2021/07/22 08:57:11;;;;;;;8.40;6.50;;;;;;;;;;5089882;28;20051;-83
2021/07/22 08:59:36;;;;;;;9.48;6.65;;;;;;;;;;5089568;28;20255;-84
2021/07/22 09:02:03;;;;;;;13.35;7.32;;;;;;;;;;5090125;28;20044;-85
2021/07/22 09:04:28;;;;;;;11.73;7.28;;;;;;;;;;5090588;28;20103;-83
2021/07/22 09:06:54;;;;;;;10.17;7.43;;;;;;;;;;5090352;28;20165;-84
2021/07/22 09:09:19;;;;;;;13.27;8.35;;;;;;;;;;5090041;28;20616;-84
2021/07/22 09:11:58;;;;;;;10.73;8.03;;;;;;;;;;5089881;28;20078;-83
2021/07/22 09:14:25;;;;;;;13.35;8.05;;;;;;;;;;5090372;28;20249;-84
2021/07/22 09:16:50;;;;;;;14.30;7.78;;;;;;;;;;5093979;28;20081;-83
2021/07/22 09:19:32;;;;;;;10.63;7.25;;;;;;;;;;5094394;28;20028;-83
2021/07/22 09:21:57;;;;;;;14.18;8.77;;;;;;;;;;5093906;28;20040;-84
2021/07/22 09:24:22;;;;;;;14.45;8.15;;;;;;;;;;5093747;28;20119;-85
2021/07/22 09:26:51;;;;;;;14.17;8.30;;;;;;;;;;5093498;28;20439;-83
2021/07/22 09:29:16;;;;;;;12.20;7.55;;;;;;;;;;5093505;28;20257;-83
2021/07/22 09:31:42;;;;;;;13.82;8.00;;;;;;;;;;5094381;28;20024;-83
2021/07/22 09:34:24;;;;;;;11.68;7.85;;;;;;;;;;5092408;28;20081;-83
2021/07/22 09:36:49;;;;;;;18.92;8.13;;;;;;;;;;5093587;28;20032;-83
2021/07/22 09:39:20;;;;;;;10.30;7.40;;;;;;;;;;5090126;28;20097;-84
2021/07/22 09:41:54;;;;;;;10.57;7.65;;;;;;;;;;5093174;28;20300;-83
2021/07/22 09:44:30;;;;;;;13.13;7.50;;;;;;;;;;5093269;28;20032;-84
2021/07/22 09:46:56;;;;;;;10.73;7.22;;;;;;;;;;5092891;28;20028;-84
2021/07/22 09:49:28;;;;;;;11.25;7.30;;;;;;;;;;5093297;28;20035;-83
2021/07/22 09:51:56;;;;;;;13.98;6.68;;;;;;;;;;5093348;28;20036;-84
2021/07/22 09:54:31;;;;;;;11.55;8.20;;;;;;;;;;5093173;28;20479;-84
2021/07/22 09:56:56;;;;;;;15.25;7.00;;;;;;;;;;5092736;28;20075;-84
2021/07/22 09:59:21;;;;;;;12.77;7.00;;;;;;;;;;5093220;28;20441;-83
2021/07/22 10:01:48;;;;;;;11.65;7.70;;;;;;;;;;5093007;28;20036;-84
2021/07/22 10:04:13;;;;;;;8.75;7.10;;;;;;;;;;5092970;28;20037;-84
2021/07/22 10:06:39;;;;;;;10.45;6.55;;;;;;;;;;5092742;28;20448;-83
2021/07/22 10:09:05;;;;;;;12.68;7.18;;;;;;;;;;5093221;28;20445;-84
2021/07/22 10:11:31;;;;;;;12.85;6.75;;;;;;;;;;5093466;28;20028;-83
2021/07/22 10:13:57;;;;;;;9.98;7.00;;;;;;;;;;5092966;28;20609;-84
2021/07/22 10:16:22;;;;;;;10.10;6.63;;;;;;;;;;5092923;28;20110;-83
2021/07/22 10:18:49;;;;;;;10.18;6.70;;;;;;;;;;5092587;28;20328;-84
2021/07/22 10:21:15;;;;;;;14.88;7.32;;;;;;;;;;5093160;28;20055;-83
2021/07/22 10:23:40;;;;;;;10.97;7.20;;;;;;;;;;5085292;28;20488;-87
2021/07/22 10:26:06;;;;;;;11.98;7.25;;;;;;;;;;5088131;28;20387;-86
2021/07/22 10:28:32;;;;;;;12.43;7.60;;;;;;;;;;5090318;28;20447;-84
2021/07/22 10:30:58;;;;;;;15.25;8.13;;;;;;;;;;5091381;28;20495;-84
2021/07/22 10:33:24;;;;;;;10.80;7.93;;;;;;;;;;5092419;28;20020;-84
2021/07/22 10:35:53;;;;;;;13.27;6.93;;;;;;;;;;5079697;28;20043;-85
2021/07/22 10:38:23;;;;;;;13.90;7.05;;;;;;;;;;5071492;28;20040;-85
2021/07/22 10:40:51;;;;;;;15.30;7.25;;;;;;;;;;5071061;28;20039;-87
2021/07/22 10:43:29;;;;;;;11.60;7.20;;;;;;;;;;5071522;28;20040;-84
2021/07/22 10:45:55;;;;;;;13.10;6.88;;;;;;;;;;5071326;28;20036;-83
2021/07/22 10:48:25;;;;;;;16.02;6.97;;;;;;;;;;5072586;28;20389;-84
2021/07/22 10:50:53;;;;;;;11.60;7.93;;;;;;;;;;5072148;28;20028;-83
2021/07/22 10:53:34;;;;;;;9.98;6.32;;;;;;;;;;5071915;28;20111;-83
2021/07/22 10:55:59;;;;;;;12.30;8.27;;;;;;;;;;5071643;28;20020;-83
2021/07/22 10:58:24;;;;;;;11.15;6.53;;;;;;;;;;5072476;28;20037;-82
2021/07/22 11:00:50;;;;;;;17.30;7.10;;;;;;;;;;5071066;28;20020;-83
2021/07/22 11:03:39;;;;;;;15.95;7.45;;;;;;;;;;5070899;28;20284;-82
2021/07/22 11:06:07;;;;;;;12.50;7.13;;;;;;;;;;5065262;28;20378;-83
2021/07/22 11:08:39;;;;;;;12.80;7.10;;;;;;;;;;5071020;28;20349;-82
2021/07/22 11:11:06;;;;;;;10.27;7.38;;;;;;;;;;5091349;28;20032;-81
2021/07/22 11:13:34;;;;;;;17.58;8.15;;;;;;;;;;5092012;28;20114;-82
2021/07/22 11:16:00;;;;;;;11.95;8.10;;;;;;;;;;5091873;28;20023;-82
2021/07/22 11:18:44;;;;;;;11.88;7.38;;;;;;;;;;5091475;28;20755;-82
2021/07/22 11:21:23;;;;;;;11.57;7.00;;;;;;;;;;5091927;28;20079;-83
2021/07/22 11:23:52;;;;;;;10.38;6.60;;;;;;;;;;5091426;28;20032;-82
2021/07/22 11:26:22;;;;;;;21.13;6.90;;;;;;;;;;5091662;28;20028;-82
2021/07/22 11:28:48;;;;;;;12.38;6.95;;;;;;;;;;5090391;28;20388;-82
2021/07/22 11:31:14;;;;;;;16.65;6.55;;;;;;;;;;5091502;28;20019;-82
2021/07/22 11:33:39;;;;;;;10.07;6.82;;;;;;;;;;5092369;28;20029;-82
2021/07/22 11:36:05;;;;;;;10.38;6.43;;;;;;;;;;5091296;28;20383;-82
2021/07/22 11:38:31;;;;;;;13.25;6.80;;;;;;;;;;5090916;28;20016;-82
2021/07/22 11:40:57;;;;;;;11.25;7.05;;;;;;;;;;5091153;28;20115;-82
2021/07/22 11:43:36;;;;;;;15.15;7.00;;;;;;;;;;5091463;28;20036;-83
2021/07/22 11:46:02;;;;;;;13.75;6.80;;;;;;;;;;5091404;28;20032;-82
2021/07/22 11:48:27;;;;;;;15.35;7.55;;;;;;;;;;5091494;28;20028;-83
2021/07/22 11:51:00;;;;;;;14.73;6.93;;;;;;;;;;5090131;28;20123;-82
2021/07/22 11:53:26;;;;;;;10.70;5.68;;;;;;;;;;5090922;28;20376;-82
2021/07/22 11:55:51;;;;;;;12.57;6.50;;;;;;;;;;5091869;28;20032;-82
2021/07/22 11:58:16;;;;;;;12.65;6.72;;;;;;;;;;5091330;28;20048;-82
2021/07/22 12:00:42;;;;;;;10.73;6.43;;;;;;;;;;5091074;28;20024;-83
2021/07/22 12:03:08;;;;;;;12.10;5.50;;;;;;;;;;5091191;28;20040;-82
2021/07/22 12:05:33;;;;;;;12.48;6.25;;;;;;;;;;5090495;28;20133;-82
2021/07/22 12:08:17;;;;;;;8.02;5.40;;;;;;;;;;5091198;28;20039;-86
2021/07/22 12:10:42;;;;;;;10.35;5.25;;;;;;;;;;5089665;28;20075;-83
2021/07/22 12:13:11;;;;;;;11.80;6.18;;;;;;;;;;5091111;28;20048;-82
2021/07/22 12:15:37;;;;;;;8.57;5.80;;;;;;;;;;5090787;28;20433;-82
2021/07/22 12:18:03;;;;;;;14.68;6.25;;;;;;;;;;5089777;28;20024;-85
2021/07/22 12:20:28;;;;;;;10.27;5.60;;;;;;;;;;5090695;28;20040;-82
2021/07/22 12:22:54;;;;;;;8.93;6.30;;;;;;;;;;5090523;28;20066;-82
2021/07/22 12:25:19;;;;;;;14.80;6.13;;;;;;;;;;5090627;28;20016;-82
2021/07/22 12:27:53;;;;;;;9.90;6.00;;;;;;;;;;5090457;28;20047;-82
2021/07/22 12:30:21;;;;;;;19.48;6.35;;;;;;;;;;5089035;28;20024;-82
2021/07/22 12:32:49;;;;;;;9.05;5.43;;;;;;;;;;5090996;28;20035;-82
2021/07/22 12:35:33;;;;;;;12.43;5.82;;;;;;;;;;5088169;28;20044;-82
2021/07/22 12:37:59;;;;;;;8.38;5.20;;;;;;;;;;5090482;28;20452;-82
2021/07/22 12:40:31;;;;;;;9.90;5.93;;;;;;;;;;5090414;28;20111;-81
2021/07/22 12:42:58;;;;;;;12.00;5.32;;;;;;;;;;5090258;28;20032;-82
2021/07/22 12:45:23;;;;;;;8.73;5.50;;;;;;;;;;5088722;28;20069;-82
2021/07/22 12:47:48;;;;;;;9.80;4.72;;;;;;;;;;5090049;28;20028;-82
2021/07/22 12:50:32;;;;;;;9.63;5.03;;;;;;;;;;5092429;28;20095;-82
2021/07/22 12:53:05;;;;;;;10.80;5.15;;;;;;;;;;5094564;28;20020;-82
2021/07/22 12:55:34;;;;;;;11.90;6.03;;;;;;;;;;5094331;28;20036;-82
2021/07/22 12:58:01;;;;;;;9.85;5.70;;;;;;;;;;5094449;28;20067;-82
2021/07/22 13:00:26;;;;;;;8.90;5.00;;;;;;;;;;5094286;28;20035;-82
2021/07/22 13:02:56;;;;;;;8.68;5.10;;;;;;;;;;5094410;28;20032;-85
2021/07/22 13:05:21;;;;;;;10.35;5.22;;;;;;;;;;5094248;28;20024;-81
2021/07/22 13:07:48;;;;;;;7.25;4.88;;;;;;;;;;5093606;28;20032;-82
2021/07/22 13:10:13;;;;;;;7.57;4.80;;;;;;;;;;5093726;28;20440;-84
2021/07/22 13:12:38;;;;;;;14.60;5.18;;;;;;;;;;5093022;28;20039;-82
2021/07/22 13:15:04;;;;;;;8.00;5.10;;;;;;;;;;5091851;28;20039;-82
2021/07/22 13:17:29;;;;;;;7.38;5.05;;;;;;;;;;5093709;28;20016;-84
2021/07/22 13:19:54;;;;;;;10.38;5.32;;;;;;;;;;5094483;28;20052;-82
2021/07/22 13:22:20;;;;;;;11.27;4.63;;;;;;;;;;5094620;28;20032;-82
2021/07/22 13:24:48;;;;;;;13.82;5.30;;;;;;;;;;5094024;28;20016;-82
2021/07/22 13:27:17;;;;;;;9.63;5.82;;;;;;;;;;5094374;28;20501;-82
2021/07/22 13:29:42;;;;;;;13.80;6.40;;;;;;;;;;5092471;28;20492;-86
2021/07/22 13:32:08;;;;;;;10.15;5.70;;;;;;;;;;5086741;28;20024;-82
2021/07/22 13:34:33;;;;;;;12.20;5.55;;;;;;;;;;5094097;28;20549;-83
2021/07/22 13:36:59;;;;;;;7.53;5.28;;;;;;;;;;5093455;28;20036;-83
2021/07/22 13:39:24;;;;;;;10.38;5.55;;;;;;;;;;5093555;28;20016;-82
2021/07/22 13:41:49;;;;;;;9.68;5.55;;;;;;;;;;5093436;28;20032;-82
2021/07/22 13:44:14;;;;;;;7.65;5.05;;;;;;;;;;5092789;28;20081;-82
2021/07/22 13:46:40;;;;;;;8.43;4.90;;;;;;;;;;5093838;28;20020;-83
2021/07/22 13:49:05;;;;;;;7.97;5.47;;;;;;;;;;5091132;28;20063;-83
2021/07/22 13:51:32;;;;;;;12.73;5.25;;;;;;;;;;5093556;28;20040;-83
2021/07/22 13:53:57;;;;;;;8.77;5.07;;;;;;;;;;5092510;28;20391;-84
2021/07/22 13:56:22;;;;;;;8.82;5.50;;;;;;;;;;5093305;28;20031;-83
2021/07/22 13:58:48;;;;;;;7.80;5.40;;;;;;;;;;5093554;28;20529;-86
2021/07/22 14:01:13;;;;;;;6.32;4.63;;;;;;;;;;5091796;28;20027;-83
2021/07/22 14:03:38;;;;;;;8.48;4.82;;;;;;;;;;5092875;28;20757;-82
2021/07/22 14:06:03;;;;;;;9.70;5.45;;;;;;;;;;5091553;28;20031;-83
2021/07/22 14:08:29;;;;;;;7.70;4.65;;;;;;;;;;5092303;28;20079;-83
2021/07/22 14:10:54;;;;;;;8.65;5.25;;;;;;;;;;5092063;28;20039;-83
2021/07/22 14:13:19;;;;;;;10.30;5.13;;;;;;;;;;5075595;28;20410;-83
2021/07/22 14:15:45;;;;;;;9.27;5.35;;;;;;;;;;5085309;28;20016;-82
2021/07/22 14:18:10;;;;;;;8.60;5.15;;;;;;;;;;5092257;28;20077;-82
2021/07/22 14:20:35;;;;;;;9.23;5.45;;;;;;;;;;5092235;28;20051;-82